San Bruno Mountain Hill Climb

Mass-start hill climb time trial: Tuesday Jan. 1, 2019 – Schedule

Results: Men 55+ 1/2/3 & 65+

Masters 55+ 1/2/3

Place # First Last City Cat Team License Age Time Diff
1 314 Robert PASCO Belmont, CA 1 SAFEWAY Cycling 0136970 55 00:16:30.99
2 305 Carl NIELSON Danville, CA 2 Splunk Race Team 0220548 60 00:17:16.69 +00:00:45.70
3 301 Joseph FOSTER Alamo, CA 2 ThirstyBear Cycling 0286823 59 00:17:43.15 +00:01:12.16
4 310 Matthew TRETHRIC San Rafael, CA 3 Team Hammer Nutrition 0035914 61 00:17:46.19 +00:01:15.20
5 311 Hans GOUWENS Corte Madera, CA 2 ThirstyBear Cycling 0196222 58 00:17:53.95 +00:01:22.96
6 312 Robert ANDERSON Mill Valley, CA 2 0001688 64 00:17:58.78 +00:01:27.79
7 302 Scott HOLLANDER Fresno, CA 3 Revs Road Race p/b Kinetic Cycles 0308269 59 00:18:23.08 +00:01:52.09
8 300 Justin EATINGER Santa Cruz, CA 2 Pen Velo Racing/Summit Bicycles 0010382 55 00:18:44.39 +00:02:13.40
9 303 Ryosei KANEKO El Sobrante, CA 2 0356162 57 00:19:02.48 +00:02:31.49
10 304 Robert KNOCK San Luis Obispo, CA 2 Carefast 0087821 57 00:19:17.43 +00:02:46.44
11 307 Clark RASMUSSEN San Francisco, CA 2 0047316 61 00:19:39.30 +00:03:08.31
12 306 Leslie OGLESBY Salinas, CA 2 Pen Velo Racing/Summit Bicycles 0053661 61 00:19:57.55 +00:03:26.56
13 409 Ken SHIOKARI Pacifica, CA 3 0228280 60 00:20:20.32 +00:03:49.33
14 308 Erik SALANDER Belmont, CA 3 Pen Velo Racing/Summit Bicycles 0195443 61 00:21:15.49 +00:04:44.50
15 313 Alan ROBERTS San Francisco, CA 2 ThirstyBear Cycling 0282684 61 00:21:17.56 +00:04:46.57
16 309 Daniel TKACH Danville, CA 3 CBRE Racing 0419084 60 00:24:22.00 +00:07:51.01
Field: 16 of 30

Masters 65+

Place # First Last City Cat Team License Age Time Diff
1 338 Peter DUFOUR San Diego, CA 3 SDBC Powered by Spinergy p/b UC Cyclery 0250331 65 00:18:37.47
2 331 Josef LEMIRE Daly City, CA 2 ThirstyBear Cycling 0046799 70 00:18:39.87 +00:00:02.40
3 335 Jerry WICKHAM Benicia, CA 4 Benicia Bicycle Club 0419963 67 00:20:25.90 +00:01:48.43
4 332 Frank MASTERSON Millbrae, CA 4 0378683 69 00:20:43.50 +00:02:06.03
5 333 Jim SHARP Winters, CA 4 Davis Bike Club Race Team 0277576 71 00:22:46.31 +00:04:08.84
6 334 Ted TRAMBLEY Martinez, CA 5 Kovarus / C4 Racing 68 00:24:03.04 +00:05:25.57
7 336 Narda ROUSHDI 3 47423 68 00:26:18.88 +00:07:41.41
8 337 Demai BERNARD San Mateo, California 5 70 00:26:54.54 +00:08:17.07
9 330 Alvin CARPENTER Alameda, CA 3 Davis Bike Club Race Team 0186110 66 00:28:45.44 +00:10:07.97
Field: 9 of 20
Table notes: